sensor_id;sensor_type;location;lat;lon;timestamp;pressure;altitude;pressure_sealevel;temperature;humidity
13604;BME280;24578;48.264;11.436;2022-09-29T00:01:28;94742.50;;;6.56;100.00
13604;BME280;24578;48.264;11.436;2022-09-29T00:04:28;94746.25;;;6.52;100.00
13604;BME280;24578;48.264;11.436;2022-09-29T00:07:28;94741.59;;;6.46;100.00
13604;BME280;24578;48.264;11.436;2022-09-29T00:10:29;94745.34;;;6.42;100.00
13604;BME280;24578;48.264;11.436;2022-09-29T00:13:29;94740.22;;;6.42;100.00
13604;BME280;24578;48.264;11.436;2022-09-29T00:16:29;94742.31;;;6.36;100.00
13604;BME280;24578;48.264;11.436;2022-09-29T00:19:29;94749.31;;;6.34;100.00
13604;BME280;24578;48.264;11.436;2022-09-29T00:22:32;94743.50;;;6.32;100.00
13604;BME280;24578;48.264;11.436;2022-09-29T00:25:32;94743.38;;;6.34;100.00
13604;BME280;24578;48.264;11.436;2022-09-29T00:28:33;94743.38;;;6.34;100.00
13604;BME280;24578;48.264;11.436;2022-09-29T00:31:33;94736.63;;;6.33;100.00
13604;BME280;24578;48.264;11.436;2022-09-29T00:34:33;94732.53;;;6.30;100.00
13604;BME280;24578;48.264;11.436;2022-09-29T00:37:34;94744.56;;;6.30;100.00
13604;BME280;24578;48.264;11.436;2022-09-29T00:40:34;94751.56;;;6.28;100.00
13604;BME280;24578;48.264;11.436;2022-09-29T00:46:50;94729.38;;;6.27;100.00
13604;BME280;24578;48.264;11.436;2022-09-29T00:49:54;94717.22;;;6.29;100.00
13604;BME280;24578;48.264;11.436;2022-09-29T00:52:57;94715.50;;;6.29;100.00
13604;BME280;24578;48.264;11.436;2022-09-29T00:56:02;94711.84;;;6.32;100.00
13604;BME280;24578;48.264;11.436;2022-09-29T00:59:06;94717.00;;;6.32;100.00
13604;BME280;24578;48.264;11.436;2022-09-29T01:02:08;94711.16;;;6.30;100.00
13604;BME280;24578;48.264;11.436;2022-09-29T01:05:10;94704.38;;;6.29;100.00
13604;BME280;24578;48.264;11.436;2022-09-29T01:08:12;94705.22;;;6.29;100.00
13604;BME280;24578;48.264;11.436;2022-09-29T01:11:15;94709.75;;;6.25;100.00
13604;BME280;24578;48.264;11.436;2022-09-29T01:14:15;94714.09;;;6.25;100.00
13604;BME280;24578;48.264;11.436;2022-09-29T01:17:16;94707.31;;;6.24;100.00
13604;BME280;24578;48.264;11.436;2022-09-29T01:20:17;94708.25;;;6.23;100.00
13604;BME280;24578;48.264;11.436;2022-09-29T01:32:51;94711.38;;;6.27;100.00
13604;BME280;24578;48.264;11.436;2022-09-29T01:39:32;94708.34;;;6.33;100.00
13604;BME280;24578;48.264;11.436;2022-09-29T01:45:46;94700.97;;;6.39;100.00
13604;BME280;24578;48.264;11.436;2022-09-29T01:48:50;94701.75;;;6.40;100.00
13604;BME280;24578;48.264;11.436;2022-09-29T01:54:56;94705.16;;;6.40;100.00
13604;BME280;24578;48.264;11.436;2022-09-29T01:58:04;94698.16;;;6.43;100.00
13604;BME280;24578;48.264;11.436;2022-09-29T02:01:06;94694.63;;;6.44;100.00
13604;BME280;24578;48.264;11.436;2022-09-29T02:04:12;94705.72;;;6.44;100.00
13604;BME280;24578;48.264;11.436;2022-09-29T02:07:17;94700.59;;;6.44;100.00
13604;BME280;24578;48.264;11.436;2022-09-29T02:10:23;94702.34;;;6.44;100.00
13604;BME280;24578;48.264;11.436;2022-09-29T02:13:24;94698.84;;;6.45;100.00
13604;BME280;24578;48.264;11.436;2022-09-29T02:16:28;94699.66;;;6.45;100.00
13604;BME280;24578;48.264;11.436;2022-09-29T02:19:30;94694.63;;;6.44;100.00
13604;BME280;24578;48.264;11.436;2022-09-29T02:22:33;94688.56;;;6.45;100.00
13604;BME280;24578;48.264;11.436;2022-09-29T02:25:34;94698.84;;;6.45;100.00
13604;BME280;24578;48.264;11.436;2022-09-29T02:28:37;94699.78;;;6.44;100.00
13604;BME280;24578;48.264;11.436;2022-09-29T02:31:38;94697.22;;;6.44;100.00
13604;BME280;24578;48.264;11.436;2022-09-29T02:34:39;94702.34;;;6.44;100.00
13604;BME280;24578;48.264;11.436;2022-09-29T02:40:59;94708.19;;;6.46;100.00
13604;BME280;24578;48.264;11.436;2022-09-29T02:56:50;94703.84;;;6.46;100.00
13604;BME280;24578;48.264;11.436;2022-09-29T03:00:00;94702.09;;;6.47;100.00
13604;BME280;24578;48.264;11.436;2022-09-29T03:03:07;94696.00;;;6.48;100.00
13604;BME280;24578;48.264;11.436;2022-09-29T03:06:08;94698.56;;;6.48;100.00
13604;BME280;24578;48.264;11.436;2022-09-29T03:09:09;94690.75;;;6.49;100.00
13604;BME280;24578;48.264;11.436;2022-09-29T03:12:10;94695.06;;;6.49;100.00
13604;BME280;24578;48.264;11.436;2022-09-29T03:15:11;94694.25;;;6.48;100.00
13604;BME280;24578;48.264;11.436;2022-09-29T03:18:11;94685.72;;;6.48;100.00
13604;BME280;24578;48.264;11.436;2022-09-29T03:21:11;94686.66;;;6.47;100.00
13604;BME280;24578;48.264;11.436;2022-09-29T03:24:12;94690.19;;;6.46;100.00
13604;BME280;24578;48.264;11.436;2022-09-29T03:27:12;94685.06;;;6.46;100.00
13604;BME280;24578;48.264;11.436;2022-09-29T03:30:12;94696.13;;;6.46;100.00
13604;BME280;24578;48.264;11.436;2022-09-29T03:33:12;94688.28;;;6.48;100.00
13604;BME280;24578;48.264;11.436;2022-09-29T03:36:13;94688.28;;;6.48;100.00
13604;BME280;24578;48.264;11.436;2022-09-29T03:39:13;94679.63;;;6.49;100.00
13604;BME280;24578;48.264;11.436;2022-09-29T03:42:13;94671.94;;;6.49;100.00
13604;BME280;24578;48.264;11.436;2022-09-29T03:45:13;94673.69;;;6.48;100.00
13604;BME280;24578;48.264;11.436;2022-09-29T03:48:14;94673.56;;;6.50;100.00
13604;BME280;24578;48.264;11.436;2022-09-29T03:51:14;94684.53;;;6.52;100.00
13604;BME280;24578;48.264;11.436;2022-09-29T03:54:14;94677.66;;;6.52;100.00
13604;BME280;24578;48.264;11.436;2022-09-29T03:57:14;94681.97;;;6.52;100.00
13604;BME280;24578;48.264;11.436;2022-09-29T04:00:15;94691.31;;;6.53;100.00
13604;BME280;24578;48.264;11.436;2022-09-29T04:03:15;94687.34;;;6.49;100.00
13604;BME280;24578;48.264;11.436;2022-09-29T04:06:15;94694.97;;;6.50;100.00
13604;BME280;24578;48.264;11.436;2022-09-29T04:09:15;94689.56;;;6.53;100.00
13604;BME280;24578;48.264;11.436;2022-09-29T04:12:16;94694.59;;;6.55;100.00
13604;BME280;24578;48.264;11.436;2022-09-29T04:15:16;94685.00;;;6.57;100.00
13604;BME280;24578;48.264;11.436;2022-09-29T04:18:16;94682.28;;;6.59;100.00
13604;BME280;24578;48.264;11.436;2022-09-29T04:21:18;94696.66;;;6.61;100.00
13604;BME280;24578;48.264;11.436;2022-09-29T04:24:20;94701.69;;;6.63;100.00
13604;BME280;24578;48.264;11.436;2022-09-29T04:27:21;94699.47;;;6.58;100.00
13604;BME280;24578;48.264;11.436;2022-09-29T04:30:23;94704.38;;;6.61;100.00
13604;BME280;24578;48.264;11.436;2022-09-29T04:33:23;94704.56;;;6.69;100.00
13604;BME280;24578;48.264;11.436;2022-09-29T04:36:23;94703.75;;;6.69;100.00
13604;BME280;24578;48.264;11.436;2022-09-29T04:39:23;94703.50;;;6.72;100.00
13604;BME280;24578;48.264;11.436;2022-09-29T04:42:24;94700.69;;;6.75;100.00
13604;BME280;24578;48.264;11.436;2022-09-29T04:45:24;94706.66;;;6.76;100.00
13604;BME280;24578;48.264;11.436;2022-09-29T04:48:24;94709.22;;;6.76;100.00
13604;BME280;24578;48.264;11.436;2022-09-29T04:51:24;94717.75;;;6.76;100.00
13604;BME280;24578;48.264;11.436;2022-09-29T04:54:28;94711.66;;;6.77;100.00
13604;BME280;24578;48.264;11.436;2022-09-29T04:57:29;94702.88;;;6.80;100.00
13604;BME280;24578;48.264;11.436;2022-09-29T05:00:29;94695.97;;;6.80;100.00
13604;BME280;24578;48.264;11.436;2022-09-29T05:03:30;94685.56;;;6.82;100.00
13604;BME280;24578;48.264;11.436;2022-09-29T05:06:31;94682.34;;;6.90;100.00
13604;BME280;24578;48.264;11.436;2022-09-29T05:09:31;94681.31;;;6.92;100.00
13604;BME280;24578;48.264;11.436;2022-09-29T05:12:32;94682.91;;;6.93;100.00
13604;BME280;24578;48.264;11.436;2022-09-29T05:15:32;94683.59;;;6.95;100.00
13604;BME280;24578;48.264;11.436;2022-09-29T05:18:34;94680.63;;;6.90;100.00
13604;BME280;24578;48.264;11.436;2022-09-29T05:21:34;94671.00;;;6.92;100.00
13604;BME280;24578;48.264;11.436;2022-09-29T05:24:34;94678.44;;;6.95;100.00
13604;BME280;24578;48.264;11.436;2022-09-29T05:27:35;94664.78;;;6.95;100.00
13604;BME280;24578;48.264;11.436;2022-09-29T05:30:36;94656.25;;;6.94;100.00
13604;BME280;24578;48.264;11.436;2022-09-29T05:33:36;94659.66;;;6.95;100.00
13604;BME280;24578;48.264;11.436;2022-09-29T05:36:36;94669.09;;;6.94;100.00
13604;BME280;24578;48.264;11.436;2022-09-29T05:39:36;94681.03;;;6.95;100.00
13604;BME280;24578;48.264;11.436;2022-09-29T05:42:37;94665.59;;;6.95;100.00
13604;BME280;24578;48.264;11.436;2022-09-29T05:45:37;94662.78;;;6.98;100.00
13604;BME280;24578;48.264;11.436;2022-09-29T05:48:37;94662.53;;;7.01;100.00
13604;BME280;24578;48.264;11.436;2022-09-29T05:51:38;94662.97;;;7.07;100.00
13604;BME280;24578;48.264;11.436;2022-09-29T05:54:38;94664.31;;;7.11;100.00
13604;BME280;24578;48.264;11.436;2022-09-29T05:57:38;94668.28;;;7.15;100.00
13604;BME280;24578;48.264;11.436;2022-09-29T06:00:38;94667.09;;;7.19;100.00
13604;BME280;24578;48.264;11.436;2022-09-29T06:03:39;94670.34;;;7.21;100.00
13604;BME280;24578;48.264;11.436;2022-09-29T06:06:39;94658.97;;;7.24;100.00
13604;BME280;24578;48.264;11.436;2022-09-29T06:09:40;94663.72;;;7.28;100.00
13604;BME280;24578;48.264;11.436;2022-09-29T06:12:40;94665.91;;;7.33;100.00
13604;BME280;24578;48.264;11.436;2022-09-29T06:15:40;94669.84;;;7.37;100.00
13604;BME280;24578;48.264;11.436;2022-09-29T06:18:41;94673.66;;;7.43;100.00
13604;BME280;24578;48.264;11.436;2022-09-29T06:21:42;94666.13;;;7.51;100.00
13604;BME280;24578;48.264;11.436;2022-09-29T06:24:42;94666.81;;;7.63;100.00
13604;BME280;24578;48.264;11.436;2022-09-29T06:27:42;94659.25;;;7.71;100.00
13604;BME280;24578;48.264;11.436;2022-09-29T06:30:43;94660.34;;;7.78;100.00
13604;BME280;24578;48.264;11.436;2022-09-29T06:33:43;94654.81;;;7.83;100.00
13604;BME280;24578;48.264;11.436;2022-09-29T06:36:43;94660.13;;;7.91;100.00
13604;BME280;24578;48.264;11.436;2022-09-29T06:40:03;94662.84;;;8.00;100.00
13604;BME280;24578;48.264;11.436;2022-09-29T06:43:03;94664.47;;;8.11;100.00
13604;BME280;24578;48.264;11.436;2022-09-29T06:46:04;94670.88;;;8.16;100.00
13604;BME280;24578;48.264;11.436;2022-09-29T06:49:04;94672.63;;;8.26;100.00
13604;BME280;24578;48.264;11.436;2022-09-29T06:52:04;94681.47;;;8.33;100.00
13604;BME280;24578;48.264;11.436;2022-09-29T06:55:04;94679.03;;;8.41;100.00
13604;BME280;24578;48.264;11.436;2022-09-29T06:58:05;94681.47;;;8.52;100.00
13604;BME280;24578;48.264;11.436;2022-09-29T07:01:05;94680.38;;;8.65;100.00
13604;BME280;24578;48.264;11.436;2022-09-29T07:04:06;94675.53;;;8.72;100.00
13604;BME280;24578;48.264;11.436;2022-09-29T07:07:06;94679.00;;;8.80;100.00
13604;BME280;24578;48.264;11.436;2022-09-29T07:10:07;94679.31;;;8.87;100.00
13604;BME280;24578;48.264;11.436;2022-09-29T07:13:08;94682.13;;;8.94;100.00
13604;BME280;24578;48.264;11.436;2022-09-29T07:16:09;94676.03;;;8.85;100.00
13604;BME280;24578;48.264;11.436;2022-09-29T07:19:10;94689.63;;;8.77;100.00
13604;BME280;24578;48.264;11.436;2022-09-29T07:22:10;94688.53;;;8.90;100.00
13604;BME280;24578;48.264;11.436;2022-09-29T07:25:11;94687.81;;;9.07;100.00
13604;BME280;24578;48.264;11.436;2022-09-29T07:28:11;94694.28;;;9.21;100.00
13604;BME280;24578;48.264;11.436;2022-09-29T07:31:12;94684.28;;;9.46;100.00
13604;BME280;24578;48.264;11.436;2022-09-29T07:34:13;94689.03;;;9.51;100.00
13604;BME280;24578;48.264;11.436;2022-09-29T07:37:13;94689.47;;;9.46;100.00
13604;BME280;24578;48.264;11.436;2022-09-29T07:40:13;94708.69;;;9.24;100.00
13604;BME280;24578;48.264;11.436;2022-09-29T07:43:13;94709.50;;;9.14;100.00
13604;BME280;24578;48.264;11.436;2022-09-29T07:46:14;94702.25;;;9.38;100.00
13604;BME280;24578;48.264;11.436;2022-09-29T07:49:14;94698.19;;;9.73;100.00
13604;BME280;24578;48.264;11.436;2022-09-29T07:52:15;94703.50;;;9.99;100.00
13604;BME280;24578;48.264;11.436;2022-09-29T07:55:15;94708.34;;;10.30;100.00
13604;BME280;24578;48.264;11.436;2022-09-29T07:58:15;94700.53;;;10.58;100.00
13604;BME280;24578;48.264;11.436;2022-09-29T08:01:16;94715.22;;;10.94;100.00
13604;BME280;24578;48.264;11.436;2022-09-29T08:04:17;94709.53;;;10.90;100.00
13604;BME280;24578;48.264;11.436;2022-09-29T08:07:17;94716.19;;;10.75;100.00
13604;BME280;24578;48.264;11.436;2022-09-29T08:10:17;94712.81;;;10.56;100.00
13604;BME280;24578;48.264;11.436;2022-09-29T08:13:17;94724.88;;;10.38;100.00
13604;BME280;24578;48.264;11.436;2022-09-29T08:16:17;94717.84;;;10.30;100.00
13604;BME280;24578;48.264;11.436;2022-09-29T08:19:18;94711.88;;;10.29;100.00
13604;BME280;24578;48.264;11.436;2022-09-29T08:22:18;94711.28;;;10.35;100.00
13604;BME280;24578;48.264;11.436;2022-09-29T08:25:18;94724.19;;;10.45;100.00
13604;BME280;24578;48.264;11.436;2022-09-29T08:28:18;94725.06;;;10.54;100.00
13604;BME280;24578;48.264;11.436;2022-09-29T08:31:19;94726.50;;;10.66;100.00
13604;BME280;24578;48.264;11.436;2022-09-29T08:34:20;94722.56;;;10.80;100.00
13604;BME280;24578;48.264;11.436;2022-09-29T08:37:20;94720.47;;;10.84;100.00
13604;BME280;24578;48.264;11.436;2022-09-29T08:40:20;94720.78;;;10.81;100.00
13604;BME280;24578;48.264;11.436;2022-09-29T08:43:33;94726.41;;;10.94;100.00
13604;BME280;24578;48.264;11.436;2022-09-29T08:46:38;94725.97;;;11.07;100.00
13604;BME280;24578;48.264;11.436;2022-09-29T08:49:40;94726.19;;;11.14;100.00
13604;BME280;24578;48.264;11.436;2022-09-29T08:52:42;94731.47;;;11.31;100.00
13604;BME280;24578;48.264;11.436;2022-09-29T08:58:46;94730.78;;;11.47;100.00
13604;BME280;24578;48.264;11.436;2022-09-29T09:01:49;94728.38;;;11.53;100.00
13604;BME280;24578;48.264;11.436;2022-09-29T09:08:06;94732.06;;;11.42;100.00
13604;BME280;24578;48.264;11.436;2022-09-29T09:14:42;94733.56;;;11.53;100.00
13604;BME280;24578;48.264;11.436;2022-09-29T09:21:09;94730.78;;;11.20;100.00
13604;BME280;24578;48.264;11.436;2022-09-29T09:27:14;94740.53;;;10.82;100.00
13604;BME280;24578;48.264;11.436;2022-09-29T09:30:18;94745.63;;;10.74;100.00
13604;BME280;24578;48.264;11.436;2022-09-29T09:39:30;94757.59;;;10.75;100.00
13604;BME280;24578;48.264;11.436;2022-09-29T09:42:34;94752.38;;;10.66;100.00
13604;BME280;24578;48.264;11.436;2022-09-29T09:45:38;94751.91;;;10.53;100.00
13604;BME280;24578;48.264;11.436;2022-09-29T09:48:42;94752.06;;;10.51;100.00
13604;BME280;24578;48.264;11.436;2022-09-29T09:51:58;94752.13;;;10.60;100.00
13604;BME280;24578;48.264;11.436;2022-09-29T09:55:04;94764.94;;;10.61;100.00
13604;BME280;24578;48.264;11.436;2022-09-29T10:01:27;94760.38;;;10.45;100.00
13604;BME280;24578;48.264;11.436;2022-09-29T10:04:27;94759.00;;;10.51;100.00
13604;BME280;24578;48.264;11.436;2022-09-29T10:07:28;94754.63;;;10.70;100.00
13604;BME280;24578;48.264;11.436;2022-09-29T10:10:31;94755.03;;;10.75;100.00
13604;BME280;24578;48.264;11.436;2022-09-29T10:13:31;94762.00;;;10.74;100.00
13604;BME280;24578;48.264;11.436;2022-09-29T10:19:58;94763.59;;;10.75;100.00
13604;BME280;24578;48.264;11.436;2022-09-29T10:26:28;94768.25;;;10.72;100.00
13604;BME280;24578;48.264;11.436;2022-09-29T10:29:45;94762.13;;;10.73;100.00
13604;BME280;24578;48.264;11.436;2022-09-29T10:32:54;94766.16;;;10.75;100.00
13604;BME280;24578;48.264;11.436;2022-09-29T10:36:07;94771.66;;;10.72;100.00
13604;BME280;24578;48.264;11.436;2022-09-29T10:39:08;94769.44;;;10.77;100.00
13604;BME280;24578;48.264;11.436;2022-09-29T10:45:28;94778.44;;;11.09;100.00
13604;BME280;24578;48.264;11.436;2022-09-29T10:48:31;94785.84;;;11.22;100.00
13604;BME280;24578;48.264;11.436;2022-09-29T10:51:32;94779.97;;;11.20;100.00
13604;BME280;24578;48.264;11.436;2022-09-29T10:54:36;94787.53;;;11.14;100.00
13604;BME280;24578;48.264;11.436;2022-09-29T10:57:39;94791.13;;;10.94;100.00
13604;BME280;24578;48.264;11.436;2022-09-29T11:00:39;94785.19;;;10.84;100.00
13604;BME280;24578;48.264;11.436;2022-09-29T11:03:44;94784.59;;;10.90;100.00
13604;BME280;24578;48.264;11.436;2022-09-29T11:06:46;94785.28;;;10.92;100.00
13604;BME280;24578;48.264;11.436;2022-09-29T11:09:46;94789.19;;;10.96;100.00
13604;BME280;24578;48.264;11.436;2022-09-29T11:12:47;94782.38;;;10.95;100.00
13604;BME280;24578;48.264;11.436;2022-09-29T11:15:49;94792.41;;;10.99;100.00
13604;BME280;24578;48.264;11.436;2022-09-29T11:18:50;94789.63;;;10.92;100.00
13604;BME280;24578;48.264;11.436;2022-09-29T11:43:42;94795.41;;;11.48;100.00
13604;BME280;24578;48.264;11.436;2022-09-29T11:46:48;94796.22;;;11.49;100.00
13604;BME280;24578;48.264;11.436;2022-09-29T11:53:13;94801.63;;;11.37;100.00
13604;BME280;24578;48.264;11.436;2022-09-29T11:56:23;94809.06;;;11.32;100.00
13604;BME280;24578;48.264;11.436;2022-09-29T11:59:41;94807.63;;;11.38;100.00
13604;BME280;24578;48.264;11.436;2022-09-29T12:12:24;94801.25;;;11.77;100.00
13604;BME280;24578;48.264;11.436;2022-09-29T12:18:36;94800.31;;;12.12;100.00
13604;BME280;24578;48.264;11.436;2022-09-29T12:21:41;94798.56;;;12.13;100.00
13604;BME280;24578;48.264;11.436;2022-09-29T12:24:45;94802.72;;;12.06;100.00
13604;BME280;24578;48.264;11.436;2022-09-29T12:27:47;94795.78;;;12.14;100.00
13604;BME280;24578;48.264;11.436;2022-09-29T12:30:49;94789.66;;;12.24;100.00
13604;BME280;24578;48.264;11.436;2022-09-29T12:34:12;94789.53;;;12.33;100.00
13604;BME280;24578;48.264;11.436;2022-09-29T12:40:24;94784.03;;;12.37;100.00
13604;BME280;24578;48.264;11.436;2022-09-29T12:43:34;94782.09;;;12.39;100.00
13604;BME280;24578;48.264;11.436;2022-09-29T12:47:12;94781.00;;;12.58;100.00
13604;BME280;24578;48.264;11.436;2022-09-29T12:50:08;94778.91;;;12.61;100.00
13604;BME280;24578;48.264;11.436;2022-09-29T12:53:58;94776.00;;;12.64;99.63
13604;BME280;24578;48.264;11.436;2022-09-29T12:56:35;94785.56;;;12.64;99.51
13604;BME280;24578;48.264;11.436;2022-09-29T12:59:45;94789.28;;;12.53;99.94
13604;BME280;24578;48.264;11.436;2022-09-29T13:09:03;94791.47;;;11.97;100.00
13604;BME280;24578;48.264;11.436;2022-09-29T13:15:44;94803.53;;;11.80;100.00
13604;BME280;24578;48.264;11.436;2022-09-29T13:28:37;94803.56;;;12.06;100.00
13604;BME280;24578;48.264;11.436;2022-09-29T13:31:36;94810.97;;;12.01;100.00
13604;BME280;24578;48.264;11.436;2022-09-29T13:34:38;94805.88;;;11.91;100.00
13604;BME280;24578;48.264;11.436;2022-09-29T13:37:43;94806.28;;;11.78;100.00
13604;BME280;24578;48.264;11.436;2022-09-29T13:44:04;94811.03;;;11.83;100.00
13604;BME280;24578;48.264;11.436;2022-09-29T13:47:26;94811.63;;;11.77;100.00
13604;BME280;24578;48.264;11.436;2022-09-29T13:53:41;94817.38;;;11.62;100.00
13604;BME280;24578;48.264;11.436;2022-09-29T13:56:41;94813.59;;;11.56;100.00
13604;BME280;24578;48.264;11.436;2022-09-29T13:59:43;94818.94;;;11.55;100.00
13604;BME280;24578;48.264;11.436;2022-09-29T14:03:00;94820.41;;;11.57;100.00
13604;BME280;24578;48.264;11.436;2022-09-29T14:09:17;94817.28;;;11.54;100.00
13604;BME280;24578;48.264;11.436;2022-09-29T14:12:20;94817.25;;;11.46;100.00
13604;BME280;24578;48.264;11.436;2022-09-29T14:15:23;94829.84;;;11.40;100.00
13604;BME280;24578;48.264;11.436;2022-09-29T14:18:31;94828.53;;;11.36;100.00
13604;BME280;24578;48.264;11.436;2022-09-29T14:24:48;94835.41;;;11.27;100.00
13604;BME280;24578;48.264;11.436;2022-09-29T14:31:02;94840.81;;;11.34;100.00
13604;BME280;24578;48.264;11.436;2022-09-29T14:34:03;94847.47;;;11.37;100.00
13604;BME280;24578;48.264;11.436;2022-09-29T14:37:03;94857.59;;;11.30;100.00
13604;BME280;24578;48.264;11.436;2022-09-29T14:40:06;94850.38;;;11.16;100.00
13604;BME280;24578;48.264;11.436;2022-09-29T14:43:47;94859.84;;;11.07;100.00
13604;BME280;24578;48.264;11.436;2022-09-29T15:00:02;94876.69;;;10.37;100.00
13604;BME280;24578;48.264;11.436;2022-09-29T15:03:04;94880.50;;;10.33;100.00
13604;BME280;24578;48.264;11.436;2022-09-29T15:06:17;94884.78;;;10.14;100.00
13604;BME280;24578;48.264;11.436;2022-09-29T15:09:19;94883.22;;;10.03;100.00
13604;BME280;24578;48.264;11.436;2022-09-29T15:12:26;94896.84;;;9.96;100.00
13604;BME280;24578;48.264;11.436;2022-09-29T15:15:34;94896.56;;;9.89;100.00
13604;BME280;24578;48.264;11.436;2022-09-29T15:19:05;94896.59;;;9.79;100.00
13604;BME280;24578;48.264;11.436;2022-09-29T15:28:30;94892.13;;;9.42;100.00
13604;BME280;24578;48.264;11.436;2022-09-29T15:31:32;94894.19;;;9.38;100.00
13604;BME280;24578;48.264;11.436;2022-09-29T15:34:36;94891.59;;;9.38;100.00
13604;BME280;24578;48.264;11.436;2022-09-29T15:40:45;94888.19;;;9.28;100.00
13604;BME280;24578;48.264;11.436;2022-09-29T15:46:57;94896.47;;;9.02;100.00
13604;BME280;24578;48.264;11.436;2022-09-29T15:49:58;94893.75;;;8.94;100.00
13604;BME280;24578;48.264;11.436;2022-09-29T15:53:04;94897.31;;;9.03;100.00
13604;BME280;24578;48.264;11.436;2022-09-29T15:56:06;94881.41;;;9.07;100.00
13604;BME280;24578;48.264;11.436;2022-09-29T15:59:16;94898.22;;;9.11;100.00
13604;BME280;24578;48.264;11.436;2022-09-29T16:02:23;94894.97;;;9.19;100.00
13604;BME280;24578;48.264;11.436;2022-09-29T16:05:24;94912.94;;;9.21;100.00
13604;BME280;24578;48.264;11.436;2022-09-29T16:08:26;94895.13;;;9.18;100.00
13604;BME280;24578;48.264;11.436;2022-09-29T16:11:36;94903.69;;;9.18;100.00
13604;BME280;24578;48.264;11.436;2022-09-29T16:14:38;94912.38;;;9.17;100.00
13604;BME280;24578;48.264;11.436;2022-09-29T16:17:38;94911.81;;;9.13;100.00
13604;BME280;24578;48.264;11.436;2022-09-29T16:20:39;94913.88;;;9.10;100.00
13604;BME280;24578;48.264;11.436;2022-09-29T16:27:02;94908.16;;;9.06;100.00
13604;BME280;24578;48.264;11.436;2022-09-29T16:33:23;94929.47;;;8.98;100.00
13604;BME280;24578;48.264;11.436;2022-09-29T16:36:26;94925.78;;;8.91;100.00
13604;BME280;24578;48.264;11.436;2022-09-29T16:39:30;94927.00;;;8.77;100.00
13604;BME280;24578;48.264;11.436;2022-09-29T16:42:34;94937.03;;;8.71;100.00
13604;BME280;24578;48.264;11.436;2022-09-29T16:45:34;94950.88;;;8.70;100.00
13604;BME280;24578;48.264;11.436;2022-09-29T16:48:36;94951.91;;;8.67;100.00
13604;BME280;24578;48.264;11.436;2022-09-29T16:51:40;94955.75;;;8.73;100.00
13604;BME280;24578;48.264;11.436;2022-09-29T16:54:42;94958.63;;;8.79;100.00
13604;BME280;24578;48.264;11.436;2022-09-29T17:04:32;94966.09;;;8.82;100.00
13604;BME280;24578;48.264;11.436;2022-09-29T17:07:36;94972.50;;;8.78;100.00
13604;BME280;24578;48.264;11.436;2022-09-29T17:10:37;94975.31;;;8.75;100.00
13604;BME280;24578;48.264;11.436;2022-09-29T17:13:37;94979.25;;;8.70;100.00
13604;BME280;24578;48.264;11.436;2022-09-29T17:16:38;94980.44;;;8.65;100.00
13604;BME280;24578;48.264;11.436;2022-09-29T17:19:40;94986.69;;;8.63;100.00
13604;BME280;24578;48.264;11.436;2022-09-29T17:22:41;94989.25;;;8.63;100.00
13604;BME280;24578;48.264;11.436;2022-09-29T17:25:44;94991.25;;;8.59;100.00
13604;BME280;24578;48.264;11.436;2022-09-29T17:28:47;95000.88;;;8.57;100.00
13604;BME280;24578;48.264;11.436;2022-09-29T17:31:50;95003.47;;;8.57;100.00
13604;BME280;24578;48.264;11.436;2022-09-29T17:34:52;95018.16;;;8.57;100.00
13604;BME280;24578;48.264;11.436;2022-09-29T17:37:54;95009.84;;;8.53;100.00
13604;BME280;24578;48.264;11.436;2022-09-29T17:41:01;95011.84;;;8.49;100.00
13604;BME280;24578;48.264;11.436;2022-09-29T17:44:03;95018.53;;;8.52;100.00
13604;BME280;24578;48.264;11.436;2022-09-29T17:47:04;95021.09;;;8.52;100.00
13604;BME280;24578;48.264;11.436;2022-09-29T17:50:11;95025.31;;;8.53;100.00
13604;BME280;24578;48.264;11.436;2022-09-29T17:53:17;95035.50;;;8.55;100.00
13604;BME280;24578;48.264;11.436;2022-09-29T17:56:24;95036.59;;;8.52;100.00
13604;BME280;24578;48.264;11.436;2022-09-29T17:59:24;95033.53;;;8.47;100.00
13604;BME280;24578;48.264;11.436;2022-09-29T18:02:26;95035.41;;;8.45;100.00
13604;BME280;24578;48.264;11.436;2022-09-29T18:05:28;95037.28;;;8.43;100.00
13604;BME280;24578;48.264;11.436;2022-09-29T18:08:29;95024.78;;;8.38;100.00
13604;BME280;24578;48.264;11.436;2022-09-29T18:11:29;95032.91;;;8.33;100.00
13604;BME280;24578;48.264;11.436;2022-09-29T18:14:29;95029.78;;;8.30;100.00
13604;BME280;24578;48.264;11.436;2022-09-29T18:17:34;95033.41;;;8.27;100.00
13604;BME280;24578;48.264;11.436;2022-09-29T18:20:35;95030.97;;;8.26;100.00
13604;BME280;24578;48.264;11.436;2022-09-29T18:23:35;95030.28;;;8.23;100.00
13604;BME280;24578;48.264;11.436;2022-09-29T18:26:38;95034.72;;;8.21;100.00
13604;BME280;24578;48.264;11.436;2022-09-29T18:29:41;95034.16;;;8.18;100.00
13604;BME280;24578;48.264;11.436;2022-09-29T18:32:43;95034.97;;;8.18;100.00
13604;BME280;24578;48.264;11.436;2022-09-29T18:35:51;95043.69;;;8.17;100.00
13604;BME280;24578;48.264;11.436;2022-09-29T18:38:52;95044.97;;;8.12;100.00
13604;BME280;24578;48.264;11.436;2022-09-29T18:41:52;95043.72;;;8.06;100.00
13604;BME280;24578;48.264;11.436;2022-09-29T18:44:54;95039.50;;;8.05;100.00
13604;BME280;24578;48.264;11.436;2022-09-29T18:47:56;95046.53;;;8.03;100.00
13604;BME280;24578;48.264;11.436;2022-09-29T18:51:01;95051.97;;;8.00;100.00
13604;BME280;24578;48.264;11.436;2022-09-29T18:54:03;95057.13;;;8.00;100.00
13604;BME280;24578;48.264;11.436;2022-09-29T18:57:07;95052.69;;;7.90;100.00
13604;BME280;24578;48.264;11.436;2022-09-29T19:00:13;95053.63;;;7.89;100.00
13604;BME280;24578;48.264;11.436;2022-09-29T19:03:19;95055.50;;;7.87;100.00